Latest Weather Observations for Cummins Airport

IDS60801

Issued at 5:31 pm CST Saturday 4 July 2015 (issued every 30 minutes, with the page automatically refreshed every 10 minutes)

About weather observations | Map of weather stations | Latest weather observations for SA | Other Formats
Station Details ID: 018217 Name: CUMMINS AERO Lat: -34.25 Lon: 135.71 Height: 60.11 m
Data from the previous 72 hours. | See also: Recent months at Cummins Airport
Date/Time
CST
Temp
°C
App
Temp
°C
Dew
Point
Rel
Hum
%
Delta-T
°C
Wind Press
QNH
hPa
Press
MSL
hPa
Rain
since 9 am
mm
Dir
 
Spd
km/h
Gust
km/h
Spd
kts
Gust
kts
04/05:30pm 11.7 - - - - WNW 9 11 5 6 1021.5 1021.6 0.0
04/05:00pm 13.5 - - - - WNW 17 24 9 13 1021.4 1021.5 0.0
04/04:30pm 15.1 - - - - WNW 15 20 8 11 1021.3 1021.4 0.0
04/04:00pm 15.8 - - - - WNW 20 26 11 14 1021.1 1021.2 0.0
04/03:30pm 16.5 - - - - WNW 19 28 10 15 1021.0 1021.1 0.0
04/03:00pm 17.0 - - - - WNW 20 28 11 15 1021.0 1021.1 0.0
04/02:30pm 17.1 - - - - WNW 20 30 11 16 1021.0 1021.1 0.0
04/02:00pm 17.2 - - - - NW 20 30 11 16 1021.2 1021.3 0.0
04/01:30pm 17.4 - - - - NW 19 28 10 15 1021.4 1021.5 0.0
04/01:00pm 16.6 - - - - NW 17 26 9 14 1022.0 1022.1 0.0
04/12:30pm 16.0 - - - - NNW 13 20 7 11 1022.5 1022.6 0.0
04/12:00pm 15.4 - - - - N 11 19 6 10 1022.8 1022.9 0.0
04/11:30am 14.8 - - - - N 11 17 6 9 1023.4 1023.5 0.0
04/11:00am 13.9 - - - - N 13 17 7 9 1023.9 1024.0 0.0
04/10:30am 12.7 - - - - NNE 9 11 5 6 1024.1 1024.2 0.0
04/10:00am 10.2 - - - - ENE 4 7 2 4 1024.3 1024.4 0.0
04/09:30am 10.3 - - - - N 9 11 5 6 1024.2 1024.3 0.0
04/09:00am 8.7 - - - - NNE 9 13 5 7 1024.0 1024.1 0.0
04/08:30am 6.6 - - - - NNE 11 13 6 7 1023.7 1023.8 0.0
04/08:00am 6.6 - - - - NNE 13 15 7 8 1023.6 1023.7 0.0
04/07:30am 6.9 - - - - NE 13 15 7 8 1023.4 1023.5 0.0
04/07:00am 6.9 - - - - NE 11 13 6 7 1023.2 1023.3 0.0
04/06:30am 7.0 - - - - NNE 9 11 5 6 1023.0 1023.1 0.0
04/06:00am 7.5 - - - - NNE 9 13 5 7 1022.9 1023.0 0.0
04/05:30am 6.2 - - - - NNE 9 11 5 6 1022.8 1022.9 0.0
04/05:00am 4.8 - - - - NNE 7 9 4 5 1022.9 1023.0 0.0
04/04:30am 4.3 - - - - NE 9 9 5 5 1022.9 1023.0 0.0
04/04:00am 2.7 - - - - NE 6 9 3 5 1023.0 1023.1 0.0
04/03:30am 3.0 - - - - CALM 0 0 0 0 1023.2 1023.3 0.0
04/03:00am 3.8 - - - - CALM 0 0 0 0 1023.5 1023.6 0.0
04/02:30am 4.3 - - - - CALM 0 0 0 0 1023.5 1023.6 0.0
04/02:00am 3.8 - - - - CALM 0 0 0 0 1023.6 1023.7 0.0
04/01:30am 3.2 - - - - CALM 0 0 0 0 1023.8 1023.9 0.0
04/01:00am 4.1 - - - - SSE 2 7 1 4 1023.9 1024.0 0.0
04/12:30am 3.9 - - - - NNE 4 7 2 4 1024.2 1024.3 0.0
04/12:00am 5.5 - - - - N 9 11 5 6 1024.3 1024.4 0.0
 
Date/Time
CST
Temp
°C
App
Temp
°C
Dew
Point
Rel
Hum
%
Delta-T
°C
Wind Press
QNH
hPa
Press
MSL
hPa
Rain
since 9 am
mm
Dir
 
Spd
km/h
Gust
km/h
Spd
kts
Gust
kts
03/11:30pm 3.9 - - - - ENE 7 9 4 5 1024.6 1024.7 0.0
03/11:00pm 6.4 - - - - NE 9 9 5 5 1024.8 1024.9 0.0
03/10:30pm 6.0 - - - - NE 9 9 5 5 1024.9 1025.0 0.0
03/10:00pm 5.6 - - - - NNE 9 11 5 6 1025.1 1025.2 0.0
03/09:30pm 5.6 - - - - NE 7 9 4 5 1025.1 1025.2 0.0
03/09:00pm 6.4 - - - - NNE 7 9 4 5 1025.1 1025.2 0.0
03/08:30pm 4.8 - - - - ENE 7 11 4 6 1025.4 1025.5 0.0
03/08:00pm 5.9 - - - - CALM 0 0 0 0 1025.4 1025.5 0.0
03/07:30pm 7.9 - - - - CALM 0 0 0 0 1025.2 1025.3 0.0
03/07:00pm 8.3 - - - - ESE 6 9 3 5 1025.2 1025.3 0.0
03/06:30pm 9.6 - - - - NW 7 9 4 5 1024.9 1025.0 0.0
03/06:00pm 10.3 - - - - CALM 0 0 0 0 1024.8 1024.9 0.0
03/05:30pm 12.4 - - - - WNW 2 6 1 3 1024.8 1024.9 0.0
03/05:00pm 14.3 - - - - W 9 11 5 6 1025.0 1025.1 0.0
03/04:30pm 15.5 - - - - W 7 9 4 5 1024.9 1025.0 0.0
03/04:00pm 15.5 - - - - WNW 9 11 5 6 1024.9 1025.0 0.0
03/03:30pm 16.0 - - - - NW 9 13 5 7 1025.0 1025.1 0.0
03/03:00pm 15.5 - - - - W 11 17 6 9 1025.2 1025.3 0.0
03/02:30pm 15.5 - - - - W 13 20 7 11 1025.4 1025.5 0.0
03/02:00pm 16.1 - - - - NW 13 17 7 9 1025.6 1025.7 0.0
03/01:30pm 16.2 - - - - NNW 13 17 7 9 1025.8 1025.9 0.0
03/01:00pm 14.9 - - - - NNW 11 17 6 9 1026.4 1026.5 0.0
03/12:30pm 14.4 - - - - N 13 19 7 10 1026.8 1026.9 0.0
03/12:00pm 14.4 - - - - N 15 19 8 10 1027.5 1027.6 0.0
03/11:30am 14.8 - - - - N 15 20 8 11 1027.9 1028.0 0.0
03/11:00am 13.2 - - - - NNE 11 17 6 9 1028.5 1028.5 0.0
03/10:30am 12.5 - - - - NNE 9 13 5 7 1028.7 1028.7 0.0
03/10:00am 10.6 - - - - NNE 6 7 3 4 1028.8 1028.8 0.0
03/09:30am 9.8 - - - - NNE 7 9 4 5 1028.6 1028.6 0.0
03/09:00am 8.3 - - - - NNE 7 9 4 5 1028.5 1028.5 0.0
03/08:30am 7.1 - - - - ENE 4 7 2 4 1028.3 1028.3 0.0
03/08:00am 6.1 - - - - NNE 7 9 4 5 1028.3 1028.3 0.0
03/07:30am 5.8 - - - - CALM 0 0 0 0 1027.9 1028.0 0.0
03/07:00am 5.6 - - - - CALM 0 0 0 0 1027.7 1027.8 0.0
03/06:30am 5.9 - - - - S 6 7 3 4 1027.7 1027.8 0.0
03/06:00am 5.7 - - - - SSE 7 9 4 5 1027.6 1027.7 0.0
03/05:30am 5.4 - - - - E 6 7 3 4 1028.0 1028.1 0.0
03/05:00am 4.3 - - - - NNE 11 15 6 8 1027.7 1027.8 0.0
03/04:30am 5.8 - - - - NW 7 11 4 6 1028.4 1028.4 0.0
03/04:00am 7.4 - - - - SE 2 7 1 4 1028.0 1028.1 0.0
03/03:30am 7.7 - - - - SE 7 9 4 5 1028.7 1028.7 0.0
03/03:00am 7.5 - - - - SE 7 11 4 6 1028.7 1028.7 0.0
03/02:30am 7.2 - - - - CALM 0 0 0 0 1029.2 1029.2 0.0
03/02:00am 7.2 - - - - CALM 0 0 0 0 1029.3 1029.3 0.0
03/01:30am 6.9 - - - - CALM 0 0 0 0 1029.2 1029.2 0.0
03/01:00am 6.7 - - - - WNW 2 9 1 5 1029.4 1029.4 0.0
03/12:30am 6.6 - - - - W 9 13 5 7 1029.7 1029.7 0.0
03/12:00am 6.6 - - - - CALM 0 0 0 0 1030.0 1030.0 0.0
 
Date/Time
CST
Temp
°C
App
Temp
°C
Dew
Point
Rel
Hum
%
Delta-T
°C
Wind Press
QNH
hPa
Press
MSL
hPa
Rain
since 9 am
mm
Dir
 
Spd
km/h
Gust
km/h
Spd
kts
Gust
kts
02/11:30pm 6.7 - - - - SSE 6 9 3 5 1030.1 1030.1 0.0
02/11:00pm 5.7 - - - - SSW 2 7 1 4 1030.3 1030.3 0.0
02/10:30pm 4.3 - - - - W 6 7 3 4 1030.4 1030.4 0.0
02/10:00pm 5.3 - - - - CALM 0 0 0 0 1030.5 1030.6 0.0
02/09:30pm 5.4 - - - - CALM 0 0 0 0 1030.4 1030.4 0.0
02/09:00pm 5.8 - - - - CALM 0 0 0 0 1030.2 1030.2 0.0
02/08:30pm 7.6 - - - - NNE 7 9 4 5 1030.3 1030.3 0.0
02/08:00pm 7.7 - - - - CALM 0 6 0 3 1030.4 1030.4 0.0
02/07:30pm 9.6 - - - - ENE 4 7 2 4 1030.1 1030.1 0.0
02/07:00pm 9.0 - - - - ESE 9 11 5 6 1030.0 1030.0 0.0
02/06:30pm 10.3 - - - - ESE 6 7 3 4 1029.8 1029.8 0.0
02/06:00pm 10.7 - - - - E 9 11 5 6 1029.4 1029.4 0.0
02/05:30pm 11.4 - - - - ESE 11 15 6 8 1029.2 1029.2 0.0
02/05:00pm 12.4 - - - - ESE 9 11 5 6 1029.3 1029.3 0.0
02/04:30pm 12.9 - - - - ESE 13 17 7 9 1029.3 1029.3 0.0
02/04:00pm 14.2 - - - - SE 17 22 9 12 1029.0 1029.0 0.0
02/03:30pm 14.6 - - - - ESE 15 19 8 10 1029.2 1029.2 0.0
02/03:00pm 14.4 - - - - ESE 17 20 9 11 1029.0 1029.0 0.0
02/02:30pm 14.7 - - - - SE 19 24 10 13 1028.9 1028.9 0.0
02/02:00pm 14.7 - - - - ESE 17 22 9 12 1029.2 1029.2 0.0
02/01:30pm 14.6 - - - - SE 11 15 6 8 1029.6 1029.6 0.0
02/01:00pm 14.6 - - - - CALM 0 0 0 0 1029.8 1029.8 0.0
02/12:30pm 13.8 - - - - N 2 7 1 4 1030.1 1030.1 0.0
02/12:00pm 13.2 - - - - CALM 0 7 0 4 1030.5 1030.6 0.0
02/11:30am 11.5 - - - - ENE 4 7 2 4 1031.1 1031.2 0.0
02/11:00am 10.5 - - - - NE 6 11 3 6 1031.1 1031.2 0.0
02/10:30am 10.1 - - - - NE 7 9 4 5 1030.9 1031.0 0.0
02/10:00am 9.2 - - - - NNE 7 11 4 6 1030.7 1030.8 0.0
02/09:30am 8.2 - - - - NNE 7 11 4 6 1030.4 1030.4 0.0
02/09:00am 7.3 - - - - NE 9 11 5 6 1030.0 1030.0 0.2
02/08:30am 6.1 - - - - NE 7 11 4 6 1029.7 1029.7 0.2
02/08:00am 5.5 - - - - NE 9 11 5 6 1029.5 1029.5 0.2
02/07:30am 5.1 - - - - NNE 9 13 5 7 1029.5 1029.5 0.2
02/07:00am 3.5 - - - - NE 7 9 4 5 1029.2 1029.2 0.0
02/06:30am 4.1 - - - - NE 9 11 5 6 1028.9 1028.9 0.0
02/06:00am 3.6 - - - - NE 11 13 6 7 1028.8 1028.8 0.0
02/05:30am 3.3 - - - - NNE 11 13 6 7 1028.5 1028.5 0.0
02/05:00am 2.9 - - - - NE 9 9 5 5 1028.5 1028.5 0.0
02/04:30am 3.0 - - - - NE 7 9 4 5 1028.5 1028.5 0.0
02/04:00am 4.4 - - - - NNE 6 9 3 5 1028.5 1028.5 0.0
02/03:30am 3.0 - - - - NNE 9 11 5 6 1028.6 1028.6 0.0
02/03:00am 3.1 - - - - NNE 9 11 5 6 1028.4 1028.4 0.0
02/02:30am 4.8 - - - - NNE 7 9 4 5 1028.7 1028.7 0.0
02/02:00am 4.6 - - - - NE 6 7 3 4 1028.2 1028.2 0.0
02/01:30am 5.6 - - - - NE 7 9 4 5 1028.3 1028.3 0.0
02/01:00am 6.6 - - - - NE 9 11 5 6 1028.2 1028.2 0.0
02/12:30am 6.7 - - - - NE 7 11 4 6 1028.6 1028.6 0.0
02/12:00am 7.0 - - - - ENE 6 7 3 4 1028.8 1028.8 0.0
 
Date/Time
CST
Temp
°C
App
Temp
°C
Dew
Point
Rel
Hum
%
Delta-T
°C
Wind Press
QNH
hPa
Press
MSL
hPa
Rain
since 9 am
mm
Dir
 
Spd
km/h
Gust
km/h
Spd
kts
Gust
kts
01/11:30pm 8.1 - - - - N 7 9 4 5 1029.0 1029.0 0.0
01/11:00pm 8.3 - - - - N 9 11 5 6 1028.9 1028.9 0.0
01/10:30pm 9.0 - - - - N 9 11 5 6 1028.8 1028.8 0.0
01/10:00pm 8.7 - - - - N 9 11 5 6 1028.8 1028.8 0.0
01/09:30pm 8.8 - - - - CALM 0 7 0 4 1028.8 1028.8 0.0
01/09:00pm 9.8 - - - - NNW 4 11 2 6 1028.8 1028.8 0.0
01/08:30pm 10.1 - - - - NNW 7 9 4 5 1028.9 1028.9 0.0
01/08:00pm 10.1 - - - - NNW 7 11 4 6 1028.7 1028.7 0.0
01/07:30pm 9.9 - - - - N 7 11 4 6 1028.5 1028.5 0.0
01/07:00pm 9.3 - - - - N 7 9 4 5 1028.5 1028.5 0.0
01/06:30pm 9.4 - - - - N 7 7 4 4 1028.2 1028.2 0.0
01/06:00pm 10.1 - - - - NNW 11 11 6 6 1027.8 1027.9 0.0

Other Formats:

Comma delimited format used in spreadsheet applications
http://www.bom.gov.au/fwo/IDS60801/IDS60801.95663.axf

JavaScript Object Notation format (JSON) in row-major order
http://www.bom.gov.au/fwo/IDS60801/IDS60801.95663.json